createdAt,value
2023-01-28T00:00:06.312Z,1.58
2023-01-28T00:01:06.687Z,1.55
2023-01-28T00:02:06.887Z,1.55
2023-01-28T00:03:07.236Z,1.58
2023-01-28T00:04:07.581Z,1.55
2023-01-28T00:05:07.843Z,1.54
2023-01-28T00:06:08.067Z,1.54
2023-01-28T00:07:08.388Z,1.54
2023-01-28T00:08:08.722Z,1.55
2023-01-28T00:09:09.083Z,1.58
2023-01-28T00:10:09.317Z,1.60
2023-01-28T00:11:09.545Z,1.60
2023-01-28T00:12:09.748Z,1.59
2023-01-28T00:13:10.076Z,1.58
2023-01-28T00:14:10.295Z,1.55
2023-01-28T00:15:10.636Z,1.60
2023-01-28T00:16:11.041Z,1.62
2023-01-28T00:17:11.264Z,1.62
2023-01-28T00:18:11.585Z,1.66
2023-01-28T00:19:11.944Z,1.65
2023-01-28T00:20:12.151Z,1.65
2023-01-28T00:21:12.538Z,1.65
2023-01-28T00:22:12.735Z,1.66
2023-01-28T00:23:13.084Z,1.68
2023-01-28T00:24:13.406Z,1.66
2023-01-28T00:25:14.026Z,1.65
2023-01-28T00:26:14.106Z,1.68
2023-01-28T00:27:14.403Z,1.69
2023-01-28T00:28:14.707Z,1.66
2023-01-28T00:29:15.036Z,1.65
2023-01-28T00:30:15.345Z,1.62
2023-01-28T00:31:15.682Z,1.65
2023-01-28T00:32:15.986Z,1.65
2023-01-28T00:33:16.310Z,1.63
2023-01-28T00:34:16.616Z,1.63
2023-01-28T00:35:17.295Z,1.62
2023-01-28T00:36:17.214Z,1.65
2023-01-28T00:37:17.534Z,1.65
2023-01-28T00:38:17.838Z,1.66
2023-01-28T00:39:18.176Z,1.72
2023-01-28T00:40:18.498Z,1.72
2023-01-28T00:41:18.846Z,1.73
2023-01-28T00:42:19.029Z,1.79
2023-01-28T00:43:19.346Z,1.80
2023-01-28T00:44:19.665Z,1.81
2023-01-28T00:45:19.998Z,1.84
2023-01-28T00:46:20.357Z,1.86
2023-01-28T00:47:20.574Z,1.84
2023-01-28T00:48:20.879Z,1.88
2023-01-28T00:49:21.199Z,1.88
2023-01-28T00:50:21.508Z,1.91
2023-01-28T00:51:21.886Z,1.95
2023-01-28T00:52:22.131Z,1.99
2023-01-28T00:53:22.328Z,2.00
2023-01-28T00:54:22.651Z,2.02
2023-01-28T00:55:22.991Z,2.03
2023-01-28T00:56:23.308Z,2.05
2023-01-28T00:57:23.629Z,2.03
2023-01-28T00:58:23.953Z,2.03
2023-01-28T00:59:24.260Z,2.06
2023-01-28T01:00:24.608Z,2.10
2023-01-28T01:01:25.011Z,2.10
2023-01-28T01:02:25.284Z,2.16
2023-01-28T01:03:25.478Z,2.18
2023-01-28T01:04:25.810Z,2.20
2023-01-28T01:05:26.131Z,2.16
2023-01-28T01:06:26.482Z,2.16
2023-01-28T01:07:26.791Z,2.18
2023-01-28T01:08:27.100Z,2.20
2023-01-28T01:09:27.429Z,2.20
2023-01-28T01:10:27.729Z,2.21
2023-01-28T01:11:28.074Z,2.23
2023-01-28T01:12:28.388Z,2.24
2023-01-28T01:13:28.708Z,2.23
2023-01-28T01:14:29.030Z,2.25
2023-01-28T01:15:29.401Z,2.21
2023-01-28T01:16:29.615Z,2.20
2023-01-28T01:17:29.951Z,2.16
2023-01-28T01:18:30.275Z,2.14
2023-01-28T01:19:30.604Z,2.14
2023-01-28T01:20:30.927Z,2.16
2023-01-28T01:21:31.264Z,2.20
2023-01-28T01:22:31.461Z,2.21
2023-01-28T01:23:31.796Z,2.23
2023-01-28T01:24:32.178Z,2.21
2023-01-28T01:25:32.361Z,2.21
2023-01-28T01:26:32.693Z,2.21
2023-01-28T01:27:33.014Z,2.23
2023-01-28T01:28:33.342Z,2.23
2023-01-28T01:29:33.667Z,2.18
2023-01-28T01:30:33.982Z,2.17
2023-01-28T01:31:34.357Z,2.14
2023-01-28T01:32:34.554Z,2.16
2023-01-28T01:33:34.870Z,2.17
2023-01-28T01:34:35.154Z,2.18
2023-01-28T01:35:35.485Z,2.18
2023-01-28T01:36:35.830Z,2.16
2023-01-28T01:37:36.147Z,2.14
2023-01-28T01:38:36.474Z,2.10
2023-01-28T01:39:36.798Z,2.07
2023-01-28T01:40:37.115Z,2.07
2023-01-28T01:41:37.445Z,2.05
2023-01-28T01:42:37.764Z,2.02
2023-01-28T01:43:38.084Z,2.00
2023-01-28T01:44:38.402Z,2.05
2023-01-28T01:45:38.734Z,2.10
2023-01-28T01:46:39.072Z,2.18
2023-01-28T01:47:39.386Z,2.17
2023-01-28T01:48:39.716Z,2.16
2023-01-28T01:49:40.061Z,2.16
2023-01-28T01:50:40.265Z,2.17
2023-01-28T01:51:40.606Z,2.18
2023-01-28T01:52:40.940Z,2.17
2023-01-28T01:53:41.266Z,2.18
2023-01-28T01:54:41.595Z,2.17
2023-01-28T01:55:41.936Z,2.17
2023-01-28T01:56:42.277Z,2.12
2023-01-28T01:57:42.590Z,2.10
2023-01-28T01:58:42.912Z,2.06
2023-01-28T01:59:43.238Z,2.07
2023-01-28T02:00:43.579Z,2.09
2023-01-28T02:01:43.895Z,2.10
2023-01-28T02:02:44.217Z,2.12
2023-01-28T02:03:44.664Z,2.09
2023-01-28T02:04:44.918Z,2.09
2023-01-28T02:05:45.129Z,2.07
2023-01-28T02:06:45.458Z,2.07
2023-01-28T02:07:45.787Z,2.07
2023-01-28T02:08:46.103Z,2.07
2023-01-28T02:09:46.444Z,2.14
2023-01-28T02:10:46.761Z,2.16
2023-01-28T02:11:47.106Z,2.14
2023-01-28T02:12:47.427Z,2.14
2023-01-28T02:13:47.768Z,2.16
2023-01-28T02:14:48.087Z,2.18
2023-01-28T02:15:48.412Z,2.20
2023-01-28T02:16:48.808Z,2.20
2023-01-28T02:17:49.012Z,2.21
2023-01-28T02:18:49.349Z,2.20
2023-01-28T02:19:49.668Z,2.21
2023-01-28T02:20:49.997Z,2.24
2023-01-28T02:21:50.317Z,2.24
2023-01-28T02:22:50.630Z,2.25
2023-01-28T02:23:51.045Z,2.25
2023-01-28T02:24:51.268Z,2.23
2023-01-28T02:25:51.596Z,2.21
2023-01-28T02:26:51.923Z,2.20
2023-01-28T02:27:52.239Z,2.20
2023-01-28T02:28:52.568Z,2.23
2023-01-28T02:29:52.888Z,2.24
2023-01-28T02:30:53.323Z,2.27
2023-01-28T02:31:53.682Z,2.27
2023-01-28T02:32:53.786Z,2.25
2023-01-28T02:33:54.103Z,2.27
2023-01-28T02:34:54.428Z,2.23
2023-01-28T02:35:54.772Z,2.23
2023-01-28T02:36:55.048Z,2.24
2023-01-28T02:37:55.385Z,2.21
2023-01-28T02:38:55.710Z,2.18
2023-01-28T02:39:56.047Z,2.17
2023-01-28T02:40:56.363Z,2.14
2023-01-28T02:41:56.701Z,2.09
2023-01-28T02:42:57.011Z,2.07
2023-01-28T02:43:57.341Z,2.03
2023-01-28T02:44:57.651Z,2.05
2023-01-28T02:45:58.029Z,2.06
2023-01-28T02:46:58.231Z,2.09
2023-01-28T02:47:58.555Z,2.12
2023-01-28T02:48:58.885Z,2.10
2023-01-28T02:49:59.209Z,2.12
2023-01-28T02:50:59.526Z,2.12
2023-01-28T02:51:59.869Z,2.16
2023-01-28T02:53:00.182Z,2.12
2023-01-28T02:54:00.494Z,2.10
2023-01-28T02:55:00.814Z,2.12
2023-01-28T02:56:01.138Z,2.17
2023-01-28T02:57:01.476Z,2.20
2023-01-28T02:58:01.795Z,2.20
2023-01-28T02:59:02.104Z,2.21
2023-01-28T03:00:02.444Z,2.24
2023-01-28T03:01:02.761Z,2.24
2023-01-28T03:02:03.111Z,2.25
2023-01-28T03:03:03.419Z,2.24
2023-01-28T03:04:03.753Z,2.25
2023-01-28T03:05:04.067Z,2.24
2023-01-28T03:06:04.386Z,2.23
2023-01-28T03:07:04.726Z,2.21
2023-01-28T03:08:05.053Z,2.17
2023-01-28T03:09:05.390Z,2.17
2023-01-28T03:10:05.696Z,2.18
2023-01-28T03:11:06.015Z,2.21
2023-01-28T03:12:06.353Z,2.21
2023-01-28T03:13:06.662Z,2.23
2023-01-28T03:14:06.989Z,2.25
2023-01-28T03:15:07.328Z,2.27
2023-01-28T03:16:07.670Z,2.25
2023-01-28T03:17:07.995Z,2.25
2023-01-28T03:18:08.324Z,2.27
2023-01-28T03:19:08.655Z,2.27
2023-01-28T03:20:08.995Z,2.28
2023-01-28T03:21:09.347Z,2.34
2023-01-28T03:22:09.569Z,2.34
2023-01-28T03:23:09.916Z,2.35
2023-01-28T03:24:10.242Z,2.38
2023-01-28T03:25:10.567Z,2.38
2023-01-28T03:26:10.893Z,2.38
2023-01-28T03:27:11.235Z,2.39
2023-01-28T03:28:11.548Z,2.38
2023-01-28T03:29:11.876Z,2.38
2023-01-28T03:30:12.198Z,2.38
2023-01-28T03:31:12.523Z,2.36
2023-01-28T03:32:12.869Z,2.35
2023-01-28T03:33:13.096Z,2.35
2023-01-28T03:34:13.409Z,2.36
2023-01-28T03:35:14.022Z,2.35
2023-01-28T03:36:13.978Z,2.34
2023-01-28T03:37:14.323Z,2.36
2023-01-28T03:38:14.681Z,2.38
2023-01-28T03:39:15.006Z,2.39
2023-01-28T03:40:15.208Z,2.39
2023-01-28T03:41:15.536Z,2.38
2023-01-28T03:42:15.867Z,2.36
2023-01-28T03:43:16.190Z,2.35
2023-01-28T03:44:16.508Z,2.35
2023-01-28T03:45:17.322Z,2.35
2023-01-28T03:46:17.107Z,2.35
2023-01-28T03:47:17.452Z,2.34
2023-01-28T03:48:17.642Z,2.34
2023-01-28T03:49:17.957Z,2.34
2023-01-28T03:50:18.307Z,2.35
2023-01-28T03:51:18.507Z,2.35
2023-01-28T03:52:18.849Z,2.35
2023-01-28T03:53:19.057Z,2.35
2023-01-28T03:54:19.395Z,2.31
2023-01-28T03:55:19.724Z,2.34
2023-01-28T03:56:20.057Z,2.35
2023-01-28T03:57:20.410Z,2.31
2023-01-28T03:58:20.621Z,2.34
2023-01-28T03:59:20.941Z,2.36
2023-01-28T04:00:21.250Z,2.35
2023-01-28T04:01:21.777Z,2.34
2023-01-28T04:02:21.901Z,2.34
2023-01-28T04:03:22.236Z,2.36
2023-01-28T04:05:30.883Z,2.39
2023-01-28T04:06:31.210Z,2.42
2023-01-28T04:07:31.551Z,2.43
2023-01-28T04:08:31.855Z,2.41
2023-01-28T04:09:32.171Z,2.41
2023-01-28T04:10:32.462Z,2.39
2023-01-28T04:11:32.790Z,2.38
2023-01-28T04:12:33.123Z,2.39
2023-01-28T04:13:33.444Z,2.36
2023-01-28T04:14:33.760Z,2.38
2023-01-28T04:15:34.083Z,2.39
2023-01-28T04:16:34.392Z,2.41
2023-01-28T04:17:34.736Z,2.43
2023-01-28T04:18:35.052Z,2.43
2023-01-28T04:19:35.363Z,2.45
2023-01-28T04:20:35.684Z,2.42
2023-01-28T04:21:36.083Z,2.41
2023-01-28T04:22:36.283Z,2.38
2023-01-28T04:23:36.603Z,2.34
2023-01-28T04:24:36.988Z,2.35
2023-01-28T04:25:37.175Z,2.35
2023-01-28T04:26:37.488Z,2.34
2023-01-28T04:27:37.816Z,2.31
2023-01-28T04:28:38.136Z,2.30
2023-01-28T04:29:38.436Z,2.28
2023-01-28T04:30:38.775Z,2.25
2023-01-28T04:31:39.124Z,2.28
2023-01-28T04:32:39.394Z,2.28
2023-01-28T04:33:39.696Z,2.27
2023-01-28T04:34:40.012Z,2.28
2023-01-28T04:35:40.356Z,2.30
2023-01-28T04:36:40.668Z,2.27
2023-01-28T04:37:40.996Z,2.25
2023-01-28T04:38:41.299Z,2.25
2023-01-28T04:39:41.617Z,2.25
2023-01-28T04:40:41.942Z,2.28
2023-01-28T04:41:42.255Z,2.28
2023-01-28T04:42:42.580Z,2.28
2023-01-28T04:43:42.897Z,2.27
2023-01-28T04:44:43.210Z,2.23
2023-01-28T04:45:43.505Z,2.20
2023-01-28T04:46:43.884Z,2.23
2023-01-28T04:47:44.074Z,2.24
2023-01-28T04:48:44.390Z,2.24
2023-01-28T04:49:44.707Z,2.23
2023-01-28T04:50:45.029Z,2.24
2023-01-28T04:51:45.359Z,2.23
2023-01-28T04:52:45.687Z,2.24
2023-01-28T04:53:46.016Z,2.25
2023-01-28T04:54:46.329Z,2.25
2023-01-28T04:55:46.654Z,2.28
2023-01-28T04:56:46.958Z,2.30
2023-01-28T04:57:47.317Z,2.31
2023-01-28T04:58:47.489Z,2.34
2023-01-28T04:59:47.820Z,2.30
2023-01-28T05:00:48.140Z,2.30
2023-01-28T05:01:48.459Z,2.28
2023-01-28T05:02:48.735Z,2.30
2023-01-28T05:03:49.059Z,2.31
2023-01-28T05:04:49.299Z,2.31
2023-01-28T05:05:49.614Z,2.34
2023-01-28T05:06:49.911Z,2.36
2023-01-28T05:07:50.241Z,2.36
2023-01-28T05:08:50.570Z,2.35
2023-01-28T05:09:50.870Z,2.35
2023-01-28T05:10:51.196Z,2.35
2023-01-28T05:11:51.532Z,2.31
2023-01-28T05:12:51.861Z,2.30
2023-01-28T05:13:52.182Z,2.30
2023-01-28T05:14:52.489Z,2.31
2023-01-28T05:15:52.807Z,2.30
2023-01-28T05:16:53.130Z,2.27
2023-01-28T05:17:53.442Z,2.28
2023-01-28T05:18:53.761Z,2.30
2023-01-28T05:19:54.073Z,2.30
2023-01-28T05:20:54.380Z,2.31
2023-01-28T05:21:54.682Z,2.35
2023-01-28T05:22:55.025Z,2.35
2023-01-28T05:23:55.352Z,2.38
2023-01-28T05:24:55.653Z,2.35
2023-01-28T05:25:55.972Z,2.31
2023-01-28T05:26:56.300Z,2.31
2023-01-28T05:27:56.635Z,2.31
2023-01-28T05:28:56.933Z,2.31
2023-01-28T05:29:57.267Z,2.36
2023-01-28T05:30:57.614Z,2.39
2023-01-28T05:31:57.858Z,2.42
2023-01-28T05:32:58.167Z,2.41
2023-01-28T05:33:58.463Z,2.41
2023-01-28T05:34:58.785Z,2.42
2023-01-28T05:35:59.089Z,2.42
2023-01-28T05:36:59.396Z,2.42
2023-01-28T05:37:59.722Z,2.43
2023-01-28T05:39:00.101Z,2.42
2023-01-28T05:40:00.326Z,2.43
2023-01-28T05:41:00.567Z,2.42
2023-01-28T05:42:00.783Z,2.42
2023-01-28T05:43:01.128Z,2.42
2023-01-28T05:44:01.496Z,2.43
2023-01-28T05:45:01.688Z,2.43
2023-01-28T05:46:02.052Z,2.46
2023-01-28T05:47:02.260Z,2.46
2023-01-28T05:48:02.610Z,2.46
2023-01-28T05:49:02.922Z,2.45
2023-01-28T05:50:03.213Z,2.45
2023-01-28T05:51:03.549Z,2.45
2023-01-28T05:52:03.868Z,2.45
2023-01-28T05:53:04.187Z,2.48
2023-01-28T05:54:04.519Z,2.53
2023-01-28T05:55:04.826Z,2.52
2023-01-28T05:56:05.136Z,2.53
2023-01-28T05:57:05.460Z,2.49
2023-01-28T05:58:05.798Z,2.46
2023-01-28T05:59:06.119Z,2.45
2023-01-28T06:00:06.481Z,2.43
2023-01-28T06:01:06.662Z,2.42
2023-01-28T06:02:06.994Z,2.43
2023-01-28T06:03:07.215Z,2.41
2023-01-28T06:04:07.536Z,2.42
2023-01-28T06:05:07.878Z,2.43
2023-01-28T06:06:08.192Z,2.46
2023-01-28T06:07:08.499Z,2.45
2023-01-28T06:08:08.847Z,2.43
2023-01-28T06:09:09.126Z,2.43
2023-01-28T06:10:09.451Z,2.45
2023-01-28T06:11:09.772Z,2.45
2023-01-28T06:12:10.071Z,2.48
2023-01-28T06:13:10.408Z,2.45
2023-01-28T06:14:10.719Z,2.43
2023-01-28T06:15:11.029Z,2.42
2023-01-28T06:16:11.409Z,2.41
2023-01-28T06:17:11.644Z,2.41
2023-01-28T06:18:11.863Z,2.39
2023-01-28T06:19:12.200Z,2.39
2023-01-28T06:20:12.942Z,2.36
2023-01-28T06:21:12.823Z,2.34
2023-01-28T06:22:13.133Z,2.39
2023-01-28T06:23:13.448Z,2.43
2023-01-28T06:24:13.797Z,2.45
2023-01-28T06:25:14.021Z,2.45
2023-01-28T06:26:14.328Z,2.43
2023-01-28T06:27:14.669Z,2.41
2023-01-28T06:28:15.037Z,2.42
2023-01-28T06:29:15.283Z,2.41
2023-01-28T06:30:15.805Z,2.41
2023-01-28T06:31:15.731Z,2.41
2023-01-28T06:32:16.129Z,2.41
2023-01-28T06:33:16.376Z,2.39
2023-01-28T06:34:16.579Z,2.39
2023-01-28T06:35:16.876Z,2.38
2023-01-28T06:36:17.202Z,2.38
2023-01-28T06:37:17.544Z,2.38
2023-01-28T06:38:17.763Z,2.38
2023-01-28T06:39:18.099Z,2.42
2023-01-28T06:40:18.501Z,2.42
2023-01-28T06:41:18.740Z,2.45
2023-01-28T06:42:19.055Z,2.46
2023-01-28T06:43:19.396Z,2.49
2023-01-28T06:44:19.715Z,2.53
2023-01-28T06:45:20.175Z,2.53
2023-01-28T06:46:20.406Z,2.54
2023-01-28T06:47:20.654Z,2.56
2023-01-28T06:48:21.043Z,2.59
2023-01-28T06:49:21.198Z,2.60
2023-01-28T06:50:21.507Z,2.59
2023-01-28T06:51:21.834Z,2.59
2023-01-28T06:52:22.167Z,2.60
2023-01-28T06:53:22.507Z,2.61
2023-01-28T06:54:22.845Z,2.60
2023-01-28T06:55:23.168Z,2.60
2023-01-28T06:56:23.413Z,2.60
2023-01-28T06:57:23.631Z,2.60
2023-01-28T06:58:23.976Z,2.57
2023-01-28T06:59:24.219Z,2.54
2023-01-28T07:00:24.472Z,2.54
2023-01-28T07:01:24.757Z,2.56
2023-01-28T07:02:27.571Z,2.56
2023-01-28T07:03:25.306Z,2.53
2023-01-28T07:04:25.531Z,2.52
2023-01-28T07:05:25.757Z,2.52
2023-01-28T07:06:25.997Z,2.52
2023-01-28T07:07:26.228Z,2.52
2023-01-28T07:08:26.465Z,2.52
2023-01-28T07:09:27.661Z,2.53
2023-01-28T07:10:26.927Z,2.52
2023-01-28T07:11:27.296Z,2.54
2023-01-28T07:12:27.512Z,2.56
2023-01-28T07:13:27.761Z,2.57
2023-01-28T07:14:27.974Z,2.60
2023-01-28T07:15:28.317Z,2.61
2023-01-28T07:16:28.552Z,2.61
2023-01-28T07:17:28.792Z,2.64
2023-01-28T07:18:29.047Z,2.64
2023-01-28T07:19:29.366Z,2.69
2023-01-28T07:20:29.670Z,2.72
2023-01-28T07:21:29.880Z,2.71
2023-01-28T07:22:30.229Z,2.74
2023-01-28T07:23:30.583Z,2.72
2023-01-28T07:24:30.863Z,2.74
2023-01-28T07:25:31.100Z,2.74
2023-01-28T07:26:31.311Z,2.71
2023-01-28T07:27:31.653Z,2.69
2023-01-28T07:28:31.902Z,2.72
2023-01-28T07:29:32.136Z,2.74
2023-01-28T07:30:32.467Z,2.74
2023-01-28T07:31:32.773Z,2.74
2023-01-28T07:32:33.033Z,2.75
2023-01-28T07:33:33.393Z,2.77
2023-01-28T07:34:33.600Z,2.78
2023-01-28T07:35:33.942Z,2.81
2023-01-28T07:36:34.163Z,2.85
2023-01-28T07:37:34.425Z,2.85
2023-01-28T07:38:34.643Z,2.85
2023-01-28T07:39:35.001Z,2.85
2023-01-28T07:40:35.223Z,2.87
2023-01-28T07:41:35.570Z,2.85
2023-01-28T07:42:35.800Z,2.84
2023-01-28T07:43:36.033Z,2.85
2023-01-28T07:44:36.281Z,2.84
2023-01-28T07:45:36.621Z,2.87
2023-01-28T07:46:36.957Z,2.89
2023-01-28T07:47:37.292Z,2.92
2023-01-28T07:48:37.644Z,2.92
2023-01-28T07:49:37.883Z,2.95
2023-01-28T07:50:38.204Z,2.93
2023-01-28T07:51:38.545Z,2.95
2023-01-28T07:52:38.767Z,2.97
2023-01-28T07:53:39.115Z,2.97
2023-01-28T07:54:39.342Z,2.97
2023-01-28T07:55:39.686Z,2.99
2023-01-28T07:56:39.929Z,3.02
2023-01-28T07:57:40.163Z,3.00
2023-01-28T07:58:40.415Z,3.00
2023-01-28T07:59:40.624Z,3.00
2023-01-28T08:00:40.967Z,2.99
2023-01-28T08:01:41.385Z,2.96
2023-01-28T08:02:41.602Z,2.95
2023-01-28T08:03:41.849Z,2.93
2023-01-28T08:04:42.155Z,2.93
2023-01-28T08:05:42.327Z,2.95
2023-01-28T08:06:42.554Z,2.96
2023-01-28T08:07:42.809Z,2.96
2023-01-28T08:08:43.057Z,2.96
2023-01-28T08:09:43.297Z,2.96
2023-01-28T08:10:43.557Z,3.02
2023-01-28T08:11:43.770Z,3.05
2023-01-28T08:12:43.989Z,3.06
2023-01-28T08:13:44.247Z,3.11
2023-01-28T08:14:44.480Z,3.13
2023-01-28T08:15:44.772Z,3.14
2023-01-28T08:16:45.015Z,3.15
2023-01-28T08:17:46.708Z,3.13
2023-01-28T08:18:45.496Z,3.11
2023-01-28T08:19:45.737Z,3.13
2023-01-28T08:20:45.957Z,3.08
2023-01-28T08:21:46.319Z,3.10
2023-01-28T08:22:46.552Z,3.10
2023-01-28T08:23:46.800Z,3.05
2023-01-28T08:24:47.008Z,3.03
2023-01-28T08:25:47.355Z,3.05
2023-01-28T08:26:47.599Z,3.03
2023-01-28T08:27:47.857Z,3.02
2023-01-28T08:28:50.560Z,3.05
2023-01-28T08:29:48.338Z,3.03
2023-01-28T08:30:48.788Z,3.03
2023-01-28T08:31:48.954Z,3.02
2023-01-28T08:32:49.219Z,3.00
2023-01-28T08:33:49.450Z,3.00
2023-01-28T08:34:49.670Z,2.97
2023-01-28T08:35:49.929Z,2.99
2023-01-28T08:36:50.176Z,2.99
2023-01-28T08:37:50.401Z,2.99
2023-01-28T08:38:50.649Z,3.02
2023-01-28T08:39:50.891Z,3.03
2023-01-28T08:40:51.141Z,3.06
2023-01-28T08:41:51.375Z,3.05
2023-01-28T08:42:51.610Z,3.05
2023-01-28T08:43:51.863Z,3.06
2023-01-28T08:44:52.092Z,3.08
2023-01-28T08:45:52.338Z,3.08
2023-01-28T08:46:52.580Z,3.11
2023-01-28T08:47:52.845Z,3.10
2023-01-28T08:48:53.101Z,3.11
2023-01-28T08:49:53.351Z,3.14
2023-01-28T08:50:53.580Z,3.15
2023-01-28T08:51:53.823Z,3.15
2023-01-28T08:52:54.041Z,3.15
2023-01-28T08:53:54.313Z,3.15
2023-01-28T08:54:54.541Z,3.18
2023-01-28T08:55:54.790Z,3.18
2023-01-28T08:56:55.037Z,3.20
2023-01-28T08:57:57.500Z,3.23
2023-01-28T08:58:55.565Z,3.26
2023-01-28T08:59:55.783Z,3.26
2023-01-28T09:00:56.022Z,3.31
2023-01-28T09:01:56.273Z,3.29
2023-01-28T09:02:56.522Z,3.32
2023-01-28T09:03:56.846Z,3.32
2023-01-28T09:04:57.010Z,3.31
2023-01-28T09:05:57.251Z,3.32
2023-01-28T09:06:57.503Z,3.31
2023-01-28T09:07:57.785Z,3.31
2023-01-28T09:08:58.055Z,3.31
2023-01-28T09:09:58.295Z,3.32
2023-01-28T09:10:58.572Z,3.33
2023-01-28T09:11:58.826Z,3.40
2023-01-28T09:12:59.072Z,3.40
2023-01-28T09:13:59.329Z,3.40
2023-01-28T09:14:59.585Z,3.40
2023-01-28T09:15:59.860Z,3.42
2023-01-28T09:17:00.305Z,3.45
2023-01-28T09:18:00.389Z,3.47
2023-01-28T09:19:00.649Z,3.50
2023-01-28T09:20:00.937Z,3.51
2023-01-28T09:21:01.188Z,3.52
2023-01-28T09:22:01.460Z,3.52
2023-01-28T09:23:01.694Z,3.52
2023-01-28T09:24:01.991Z,3.51
2023-01-28T09:25:02.220Z,3.51
2023-01-28T09:26:02.457Z,3.51
2023-01-28T09:27:02.690Z,3.50
2023-01-28T09:28:03.243Z,3.51
2023-01-28T09:29:03.376Z,3.54
2023-01-28T09:30:03.540Z,3.54
2023-01-28T09:31:03.912Z,3.57
2023-01-28T09:32:04.044Z,3.60
2023-01-28T09:33:04.290Z,3.58
2023-01-28T09:34:04.561Z,3.57
2023-01-28T09:35:04.794Z,3.60
2023-01-28T09:36:05.072Z,3.62
2023-01-28T09:37:05.294Z,3.66
2023-01-28T09:38:05.545Z,3.66
2023-01-28T09:39:05.851Z,3.69
2023-01-28T09:40:06.087Z,3.69
2023-01-28T09:41:06.334Z,3.72
2023-01-28T09:42:06.643Z,3.72
2023-01-28T09:43:06.935Z,3.76
2023-01-28T09:44:07.222Z,3.79
2023-01-28T09:45:07.439Z,3.79
2023-01-28T09:46:07.690Z,3.83
2023-01-28T09:47:07.980Z,3.80
2023-01-28T09:48:08.211Z,3.80
2023-01-28T09:49:08.482Z,3.80
2023-01-28T09:50:09.501Z,3.83
2023-01-28T09:51:09.074Z,3.84
2023-01-28T09:52:09.326Z,3.84
2023-01-28T09:53:10.390Z,3.84
2023-01-28T09:54:09.855Z,3.86
2023-01-28T09:55:10.095Z,3.86
2023-01-28T09:56:10.350Z,3.87
2023-01-28T09:57:10.581Z,3.90
2023-01-28T09:58:10.820Z,3.88
2023-01-28T09:59:11.102Z,3.88
2023-01-28T10:00:12.035Z,3.90
2023-01-28T10:01:11.731Z,3.90
2023-01-28T10:02:11.941Z,3.91
2023-01-28T10:03:12.187Z,3.93
2023-01-28T10:04:12.480Z,3.93
2023-01-28T10:05:12.727Z,3.93
2023-01-28T10:06:12.945Z,3.94
2023-01-28T10:07:21.607Z,3.94
2023-01-28T10:08:13.719Z,3.97
2023-01-28T10:09:13.793Z,3.97
2023-01-28T10:10:14.411Z,3.97
2023-01-28T10:11:14.364Z,3.98
2023-01-28T10:12:14.610Z,4.00
2023-01-28T10:13:14.834Z,4.00
2023-01-28T10:14:15.133Z,4.00
2023-01-28T10:15:15.388Z,4.04
2023-01-28T10:16:15.636Z,4.02
2023-01-28T10:17:15.941Z,4.04
2023-01-28T10:18:18.259Z,4.04
2023-01-28T10:19:17.168Z,4.05
2023-01-28T10:20:17.103Z,4.06
2023-01-28T10:21:17.139Z,4.08
2023-01-28T10:22:17.385Z,4.09
2023-01-28T10:23:17.694Z,4.11
2023-01-28T10:24:17.958Z,4.11
2023-01-28T10:25:18.208Z,4.12
2023-01-28T10:26:18.474Z,4.14
2023-01-28T10:27:18.728Z,4.16
2023-01-28T10:28:19.012Z,4.16
2023-01-28T10:29:19.998Z,4.20
2023-01-28T10:30:19.743Z,4.18
2023-01-28T10:31:19.888Z,4.18
2023-01-28T10:32:20.239Z,4.18
2023-01-28T10:33:20.501Z,4.20
2023-01-28T10:34:21.449Z,4.16
2023-01-28T10:35:21.071Z,4.14
2023-01-28T10:36:21.322Z,4.09
2023-01-28T10:37:21.568Z,4.09
2023-01-28T10:38:21.842Z,4.08
2023-01-28T10:39:22.144Z,4.06
2023-01-28T10:40:22.440Z,4.06
2023-01-28T10:41:22.681Z,4.05
2023-01-28T10:42:22.950Z,4.05
2023-01-28T10:43:23.208Z,4.06
2023-01-28T10:44:23.489Z,4.06
2023-01-28T10:45:23.746Z,4.08
2023-01-28T10:46:24.032Z,4.06
2023-01-28T10:47:24.291Z,4.05
2023-01-28T10:48:24.601Z,4.04
2023-01-28T10:49:24.921Z,4.02
2023-01-28T10:50:25.213Z,4.00
2023-01-28T10:51:25.461Z,4.02
2023-01-28T10:52:25.688Z,4.02
2023-01-28T10:53:27.169Z,4.02
2023-01-28T10:54:26.277Z,4.04
2023-01-28T10:55:26.523Z,4.05
2023-01-28T10:56:26.779Z,4.04
2023-01-28T10:57:27.012Z,4.05
2023-01-28T10:58:27.261Z,4.04
2023-01-28T10:59:27.519Z,4.00
2023-01-28T11:00:27.766Z,3.98
2023-01-28T11:01:28.025Z,3.97
2023-01-28T11:02:28.370Z,3.98
2023-01-28T11:03:28.540Z,4.02
2023-01-28T11:04:28.815Z,4.02
2023-01-28T11:05:29.051Z,4.02
2023-01-28T11:06:29.367Z,4.00
2023-01-28T11:07:29.652Z,4.02
2023-01-28T11:08:30.057Z,4.00
2023-01-28T11:09:30.187Z,4.02
2023-01-28T11:10:30.526Z,4.02
2023-01-28T11:11:30.809Z,4.02
2023-01-28T11:12:31.069Z,4.02
2023-01-28T11:13:31.355Z,4.02
2023-01-28T11:14:31.630Z,4.00
2023-01-28T11:15:31.939Z,3.97
2023-01-28T11:16:32.214Z,3.98
2023-01-28T11:17:32.527Z,3.98
2023-01-28T11:18:32.709Z,3.96
2023-01-28T11:19:33.040Z,3.94
2023-01-28T11:20:33.241Z,3.90
2023-01-28T11:21:33.509Z,3.88
2023-01-28T11:22:33.769Z,3.86
2023-01-28T11:23:34.072Z,3.86
2023-01-28T11:24:34.437Z,3.83
2023-01-28T11:25:34.736Z,3.83
2023-01-28T11:26:35.023Z,3.80
2023-01-28T11:27:35.315Z,3.86
2023-01-28T11:28:35.639Z,3.88
2023-01-28T11:29:35.957Z,3.93
2023-01-28T11:30:36.384Z,3.91
2023-01-28T11:31:36.721Z,3.93
2023-01-28T11:32:36.727Z,3.94
2023-01-28T11:33:36.998Z,3.97
2023-01-28T11:34:37.317Z,3.96
2023-01-28T11:35:37.638Z,3.94
2023-01-28T11:36:38.054Z,3.94
2023-01-28T11:37:38.258Z,3.94
2023-01-28T11:38:38.428Z,3.94
2023-01-28T11:39:38.799Z,3.94
2023-01-28T11:40:39.043Z,3.96
2023-01-28T11:41:39.243Z,3.96
2023-01-28T11:42:39.550Z,3.97
2023-01-28T11:43:39.846Z,3.97
2023-01-28T11:44:40.158Z,3.97
2023-01-28T11:45:40.446Z,3.97
2023-01-28T11:46:40.772Z,3.97
2023-01-28T11:47:41.101Z,3.96
2023-01-28T11:48:41.325Z,3.97
2023-01-28T11:49:41.578Z,3.96
2023-01-28T11:50:41.863Z,3.97
2023-01-28T11:51:42.179Z,3.97
2023-01-28T11:53:04.825Z,3.97
2023-01-28T11:53:43.683Z,3.97
2023-01-28T11:54:43.028Z,3.96
2023-01-28T11:55:43.205Z,3.96
2023-01-28T11:56:43.526Z,3.97
2023-01-28T11:57:43.839Z,3.97
2023-01-28T11:58:44.135Z,4.00
2023-01-28T11:59:44.460Z,4.00
2023-01-28T12:00:44.763Z,4.04
2023-01-28T12:01:45.114Z,4.06
2023-01-28T12:02:45.296Z,4.06
2023-01-28T12:03:45.674Z,4.06
2023-01-28T12:04:45.974Z,4.06
2023-01-28T12:05:46.301Z,4.06
2023-01-28T12:06:46.729Z,4.06
2023-01-28T12:07:46.817Z,4.02
2023-01-28T12:08:47.119Z,4.02
2023-01-28T12:09:47.390Z,4.02
2023-01-28T12:10:47.714Z,4.00
2023-01-28T12:11:47.978Z,4.02
2023-01-28T12:12:48.136Z,4.00
2023-01-28T12:13:48.441Z,4.02
2023-01-28T12:14:48.743Z,4.04
2023-01-28T12:15:49.093Z,4.05
2023-01-28T12:16:49.381Z,4.05
2023-01-28T12:17:49.651Z,4.05
2023-01-28T12:18:49.950Z,4.04
2023-01-28T12:19:50.227Z,4.05
2023-01-28T12:20:50.527Z,4.05
2023-01-28T12:21:50.864Z,4.04
2023-01-28T12:22:51.131Z,4.04
2023-01-28T12:23:51.396Z,4.04
2023-01-28T12:24:51.751Z,4.04
2023-01-28T12:25:51.903Z,4.02
2023-01-28T12:26:52.193Z,4.02
2023-01-28T12:27:52.513Z,4.04
2023-01-28T12:28:52.690Z,4.04
2023-01-28T12:29:52.987Z,4.06
2023-01-28T12:30:53.398Z,4.05
2023-01-28T12:31:53.624Z,4.08
2023-01-28T12:32:53.731Z,4.08
2023-01-28T12:33:54.098Z,4.08
2023-01-28T12:34:54.459Z,4.08
2023-01-28T12:35:54.596Z,4.06
2023-01-28T12:36:54.880Z,4.06
2023-01-28T12:37:55.137Z,4.06
2023-01-28T12:38:58.507Z,4.09
2023-01-28T12:39:55.720Z,4.11
2023-01-28T12:40:56.145Z,4.11
2023-01-28T12:41:56.363Z,4.09
2023-01-28T12:42:56.642Z,4.11
2023-01-28T12:43:57.171Z,4.09
2023-01-28T12:44:57.296Z,4.11
2023-01-28T12:45:57.589Z,4.12
2023-01-28T12:46:57.762Z,4.14
2023-01-28T12:47:58.026Z,4.15
2023-01-28T12:48:58.280Z,4.15
2023-01-28T12:49:58.551Z,4.14
2023-01-28T12:50:58.832Z,4.15
2023-01-28T12:51:59.131Z,4.15
2023-01-28T12:52:59.470Z,4.15
2023-01-28T12:53:59.683Z,4.11
2023-01-28T12:54:59.993Z,4.11
2023-01-28T12:56:00.300Z,4.11
2023-01-28T12:57:00.552Z,4.12
2023-01-28T12:58:01.320Z,4.12
2023-01-28T12:59:01.206Z,4.12
2023-01-28T13:00:02.203Z,4.12
2023-01-28T13:01:01.725Z,4.12
2023-01-28T13:02:02.205Z,4.14
2023-01-28T13:03:02.292Z,4.16
2023-01-28T13:04:02.640Z,4.16
2023-01-28T13:05:02.882Z,4.18
2023-01-28T13:06:03.648Z,4.23
2023-01-28T13:07:03.508Z,4.27
2023-01-28T13:08:03.826Z,4.29
2023-01-28T13:09:04.166Z,4.27
2023-01-28T13:10:04.448Z,4.27
2023-01-28T13:11:04.797Z,4.29
2023-01-28T13:12:05.114Z,4.27
2023-01-28T13:13:05.426Z,4.27
2023-01-28T13:14:05.699Z,4.29
2023-01-28T13:15:06.031Z,4.30
2023-01-28T13:16:06.202Z,4.29
2023-01-28T13:17:06.519Z,4.29
2023-01-28T13:18:06.711Z,4.30
2023-01-28T13:19:07.014Z,4.30
2023-01-28T13:20:07.284Z,4.29
2023-01-28T13:21:07.556Z,4.29
2023-01-28T13:22:07.820Z,4.29
2023-01-28T13:23:08.049Z,4.29